Time;durP1;ratioP1;P1;durP2;ratioP2;P2;SDS_P1;SDS_P2;PMS_P1;PMS_P2;Temp;Humidity;BMP_temperature;BMP_pressure;BME280_temperature;BME280_humidity;BME280_pressure;Samples;Min_cycle;Max_cycle;Signal;HPM_P1;HPM_P2
2022/03/27 00:02:19;;;;;;;53.50;24.37;;;11.20;21.00;;;;;;4985421;28;20218;-70
2022/03/27 00:04:45;;;;;;;47.97;23.30;;;11.00;22.40;;;;;;4994220;28;20188;-70
2022/03/27 00:07:11;;;;;;;52.27;21.97;;;11.00;21.90;;;;;;4993996;28;20429;-70
2022/03/27 00:09:37;;;;;;;50.13;23.40;;;10.90;22.10;;;;;;4988394;28;20428;-70
2022/03/27 00:12:03;;;;;;;56.47;21.90;;;10.90;21.70;;;;;;4975021;28;20201;-70
2022/03/27 00:14:29;;;;;;;55.10;23.45;;;10.90;21.70;;;;;;4985628;28;20691;-70
2022/03/27 00:16:55;;;;;;;51.67;23.63;;;10.70;22.90;;;;;;4993601;28;20189;-70
2022/03/27 00:19:20;;;;;;;53.73;23.40;;;10.60;22.70;;;;;;4992182;28;20193;-70
2022/03/27 00:21:46;;;;;;;52.30;23.10;;;10.50;22.90;;;;;;4992554;28;20690;-70
2022/03/27 00:24:12;;;;;;;50.00;22.70;;;10.70;21.70;;;;;;4984274;28;20265;-70
2022/03/27 00:26:37;;;;;;;53.83;21.47;;;10.60;21.90;;;;;;4980535;28;20187;-70
2022/03/27 00:29:04;;;;;;;49.67;23.73;;;10.50;22.20;;;;;;4975448;28;20341;-70
2022/03/27 00:31:35;;;;;;;48.78;21.27;;;10.70;21.70;;;;;;4978294;28;20618;-70
2022/03/27 00:34:02;;;;;;;60.47;22.77;;;10.70;21.60;;;;;;4979243;28;20553;-70
2022/03/27 00:36:28;;;;;;;52.22;21.42;;;10.40;21.80;;;;;;4973964;28;20184;-70
2022/03/27 00:38:54;;;;;;;56.40;22.80;;;10.50;22.70;;;;;;4979159;28;20184;-70
2022/03/27 00:41:19;;;;;;;54.23;21.93;;;10.50;22.00;;;;;;4987399;28;20469;-70
2022/03/27 00:43:45;;;;;;;47.13;22.37;;;10.30;22.50;;;;;;4992652;28;20178;-70
2022/03/27 00:46:11;;;;;;;46.50;21.70;;;10.10;23.40;;;;;;4978248;28;20220;-70
2022/03/27 00:48:37;;;;;;;51.78;20.95;;;10.20;22.80;;;;;;4978306;28;20213;-70
2022/03/27 00:51:03;;;;;;;53.17;21.60;;;10.40;22.20;;;;;;4973911;28;20688;-70
2022/03/27 00:53:29;;;;;;;42.15;19.92;;;10.30;22.40;;;;;;4975431;28;20995;-70
2022/03/27 00:55:55;;;;;;;47.70;21.80;;;10.40;22.10;;;;;;4977805;28;20195;-70
2022/03/27 00:58:22;;;;;;;56.88;18.83;;;10.50;22.20;;;;;;4988402;28;20515;-70
2022/03/27 01:01:04;;;;;;;46.70;21.23;;;10.20;22.00;;;;;;4981620;28;20206;-70
2022/03/27 01:03:31;;;;;;;46.60;20.25;;;10.20;22.50;;;;;;4976067;28;20187;-70
2022/03/27 01:06:00;;;;;;;50.42;21.42;;;10.30;22.40;;;;;;4977598;28;20190;-70
2022/03/27 01:11:19;;;;;;;52.83;19.75;;;10.00;22.60;;;;;;4980036;28;20273;-70
2022/03/27 01:13:48;;;;;;;51.88;19.33;;;10.10;22.70;;;;;;4991116;28;20171;-70
2022/03/27 01:16:17;;;;;;;48.95;21.10;;;9.70;24.30;;;;;;4991764;28;20198;-70
2022/03/27 01:18:43;;;;;;;43.38;19.48;;;9.50;24.60;;;;;;4990655;28;20637;-70
2022/03/27 01:21:09;;;;;;;47.90;19.45;;;9.50;24.90;;;;;;4990587;28;20220;-70
2022/03/27 01:23:35;;;;;;;41.75;20.15;;;9.80;24.40;;;;;;4974920;28;20231;-70
2022/03/27 01:26:01;;;;;;;46.73;19.67;;;9.50;24.50;;;;;;4973458;28;20225;-70
2022/03/27 01:28:27;;;;;;;44.83;19.20;;;9.50;26.50;;;;;;4985322;28;20647;-70
2022/03/27 01:30:52;;;;;;;38.17;17.73;;;9.70;24.70;;;;;;4974276;28;20468;-70
2022/03/27 01:33:18;;;;;;;42.50;18.83;;;9.40;24.90;;;;;;4973432;28;20653;-70
2022/03/27 01:35:44;;;;;;;45.67;18.53;;;9.40;25.00;;;;;;4974606;28;20557;-70
2022/03/27 01:38:10;;;;;;;49.07;20.17;;;9.10;25.40;;;;;;4986132;28;20504;-70
2022/03/27 01:40:35;;;;;;;55.13;20.03;;;9.30;24.90;;;;;;4983116;28;20280;-70
2022/03/27 01:43:01;;;;;;;54.27;19.00;;;9.00;25.70;;;;;;4977120;28;20756;-70
2022/03/27 01:45:31;;;;;;;59.50;19.10;;;8.90;25.50;;;;;;4975497;28;20182;-70
2022/03/27 01:47:57;;;;;;;46.60;18.65;;;8.90;26.10;;;;;;4977784;28;20568;-70
2022/03/27 01:50:23;;;;;;;39.53;18.43;;;8.90;25.80;;;;;;4992388;28;20204;-70
2022/03/27 01:52:48;;;;;;;36.57;17.13;;;8.60;26.00;;;;;;4992421;28;20475;-70
2022/03/27 01:55:16;;;;;;;43.63;17.83;;;8.80;25.90;;;;;;4974655;28;20270;-70
2022/03/27 01:57:43;;;;;;;40.83;18.17;;;8.80;26.40;;;;;;4973921;28;20182;-70
2022/03/27 02:00:11;;;;;;;45.80;18.23;;;8.50;26.20;;;;;;4989433;28;20573;-70
2022/03/27 02:02:37;;;;;;;48.85;19.63;;;8.50;26.40;;;;;;4985953;28;20270;-70
2022/03/27 02:05:04;;;;;;;50.47;19.20;;;8.70;26.10;;;;;;4981037;28;20699;-70
2022/03/27 02:07:42;;;;;;;46.10;18.77;;;8.70;26.40;;;;;;4979361;28;20652;-70
2022/03/27 02:10:08;;;;;;;50.53;19.67;;;8.90;26.20;;;;;;4990398;28;20261;-70
2022/03/27 02:12:35;;;;;;;41.28;18.33;;;8.90;25.60;;;;;;4992093;28;20249;-70
2022/03/27 02:15:03;;;;;;;36.53;19.13;;;9.10;25.60;;;;;;4976044;28;20172;-70
2022/03/27 02:17:29;;;;;;;42.40;18.92;;;8.90;26.70;;;;;;4976611;28;20173;-70
2022/03/27 02:19:54;;;;;;;42.57;19.40;;;8.90;25.60;;;;;;4991550;28;20524;-70
2022/03/27 02:22:20;;;;;;;45.67;19.50;;;8.90;26.10;;;;;;4992049;28;20226;-70
2022/03/27 02:24:45;;;;;;;49.90;19.60;;;8.80;26.20;;;;;;4981462;28;20183;-70
2022/03/27 02:27:11;;;;;;;45.67;19.30;;;8.80;25.90;;;;;;4978417;28;20210;-70
2022/03/27 02:29:36;;;;;;;47.13;18.80;;;8.70;26.10;;;;;;4979922;28;20645;-69
2022/03/27 02:32:02;;;;;;;49.13;19.07;;;8.60;26.20;;;;;;4973754;28;20210;-70
2022/03/27 02:34:28;;;;;;;46.05;17.90;;;8.70;26.60;;;;;;4981644;28;20691;-70
2022/03/27 02:36:54;;;;;;;45.97;19.57;;;8.70;26.40;;;;;;4983208;28;20268;-70
2022/03/27 02:39:20;;;;;;;49.40;18.10;;;8.60;26.30;;;;;;4972649;28;20186;-69
2022/03/27 02:41:46;;;;;;;46.05;20.35;;;8.50;26.80;;;;;;4981594;28;20229;-70
2022/03/27 02:44:12;;;;;;;49.07;18.70;;;8.40;26.60;;;;;;4972915;28;20245;-70
2022/03/27 02:46:38;;;;;;;45.80;19.05;;;8.00;27.50;;;;;;4974540;28;20182;-69
2022/03/27 02:49:04;;;;;;;46.58;19.10;;;7.90;27.70;;;;;;4987880;28;20281;-70
2022/03/27 02:51:29;;;;;;;50.60;16.67;;;7.90;28.00;;;;;;4991474;28;20288;-70
2022/03/27 02:53:55;;;;;;;39.17;18.10;;;8.20;27.50;;;;;;4991433;28;20240;-70
2022/03/27 02:56:21;;;;;;;49.07;17.90;;;8.00;27.80;;;;;;4991279;28;20289;-70
2022/03/27 02:58:46;;;;;;;57.17;18.47;;;8.50;26.60;;;;;;4988502;28;20182;-70
2022/03/27 03:01:12;;;;;;;39.00;17.40;;;8.40;27.20;;;;;;4991334;28;20275;-70
2022/03/27 03:03:38;;;;;;;45.03;17.37;;;8.50;26.70;;;;;;4991494;28;20198;-70
2022/03/27 03:06:07;;;;;;;48.90;18.67;;;8.40;27.20;;;;;;4977504;28;20178;-70
2022/03/27 03:08:36;;;;;;;48.38;18.00;;;8.40;26.60;;;;;;4989047;28;20177;-70
2022/03/27 03:11:01;;;;;;;55.83;18.83;;;8.20;27.00;;;;;;4995335;28;20216;-70
2022/03/27 03:13:27;;;;;;;42.13;17.17;;;8.30;27.10;;;;;;4982084;28;20183;-70
2022/03/27 03:15:54;;;;;;;41.07;17.00;;;7.90;27.90;;;;;;4976020;28;20179;-70
2022/03/27 03:18:20;;;;;;;42.00;18.17;;;7.80;27.80;;;;;;4977685;28;20194;-70
2022/03/27 03:20:46;;;;;;;41.33;18.67;;;7.80;27.90;;;;;;4989426;28;20222;-69
2022/03/27 03:23:11;;;;;;;45.87;19.53;;;7.60;28.60;;;;;;4995077;28;20552;-70
2022/03/27 03:25:39;;;;;;;42.17;18.47;;;7.80;28.40;;;;;;4980489;28;20560;-69
2022/03/27 03:28:05;;;;;;;52.80;17.70;;;8.00;28.10;;;;;;4985140;28;20178;-70
2022/03/27 03:30:31;;;;;;;44.03;17.80;;;8.00;28.00;;;;;;4992699;28;20217;-70
2022/03/27 03:32:56;;;;;;;41.63;19.00;;;7.90;28.00;;;;;;4991986;28;20182;-69
2022/03/27 03:35:22;;;;;;;41.50;18.77;;;8.00;27.60;;;;;;4993040;28;20210;-69
2022/03/27 03:37:48;;;;;;;41.07;18.10;;;7.40;28.70;;;;;;4987594;28;20186;-69
2022/03/27 03:40:14;;;;;;;36.27;16.60;;;7.50;28.70;;;;;;4979255;28;20240;-69
2022/03/27 03:42:41;;;;;;;38.22;17.73;;;7.60;28.40;;;;;;4983227;28;20189;-69
2022/03/27 03:45:06;;;;;;;44.17;19.33;;;7.70;28.70;;;;;;4975397;28;20241;-69
2022/03/27 03:47:32;;;;;;;40.60;18.67;;;7.80;28.20;;;;;;4976342;28;20178;-69
2022/03/27 03:49:58;;;;;;;41.60;19.07;;;7.70;28.30;;;;;;4975819;28;20430;-71
2022/03/27 03:52:24;;;;;;;47.90;18.83;;;7.50;29.10;;;;;;4976784;28;20871;-69
2022/03/27 03:54:49;;;;;;;58.87;18.90;;;7.50;28.20;;;;;;4975213;28;20210;-70
2022/03/27 03:57:15;;;;;;;55.50;18.70;;;7.70;28.30;;;;;;4975182;28;20177;-69
2022/03/27 03:59:41;;;;;;;49.47;18.08;;;7.80;28.10;;;;;;4975458;28;20836;-71
2022/03/27 04:02:08;;;;;;;55.70;18.13;;;7.70;28.30;;;;;;4988413;28;20249;-69
2022/03/27 04:04:35;;;;;;;56.53;19.38;;;7.80;27.80;;;;;;4991564;28;20185;-71
2022/03/27 04:07:02;;;;;;;39.83;19.60;;;8.00;28.10;;;;;;4976802;28;20182;-70
2022/03/27 04:09:28;;;;;;;42.88;19.42;;;7.60;28.30;;;;;;4989075;28;20553;-71
2022/03/27 04:11:53;;;;;;;40.53;17.98;;;7.60;28.40;;;;;;4981135;28;20743;-71
2022/03/27 04:14:19;;;;;;;36.83;17.27;;;7.80;28.70;;;;;;4982156;28;20282;-69
2022/03/27 04:16:45;;;;;;;43.90;19.33;;;7.70;29.60;;;;;;4974863;28;20653;-69
2022/03/27 04:19:12;;;;;;;44.00;18.40;;;7.40;29.20;;;;;;4991430;28;20572;-69
2022/03/27 04:21:39;;;;;;;43.28;19.45;;;7.30;28.80;;;;;;4975109;28;21016;-71
2022/03/27 04:24:06;;;;;;;47.72;19.58;;;7.40;28.80;;;;;;4983292;28;20192;-69
2022/03/27 04:26:33;;;;;;;37.47;18.30;;;7.30;29.10;;;;;;4982615;28;20286;-69
2022/03/27 04:28:59;;;;;;;36.40;17.02;;;7.20;29.70;;;;;;4990334;28;20217;-70
2022/03/27 04:31:25;;;;;;;59.78;18.30;;;7.30;29.50;;;;;;4994067;28;20283;-67
2022/03/27 04:33:50;;;;;;;46.77;19.13;;;7.30;29.60;;;;;;4981822;28;20659;-67
2022/03/27 04:36:16;;;;;;;43.60;18.80;;;7.80;29.10;;;;;;4991022;28;20177;-69
2022/03/27 04:38:42;;;;;;;34.90;17.07;;;7.50;28.90;;;;;;4978025;28;20191;-67
2022/03/27 04:41:07;;;;;;;39.40;17.33;;;7.30;29.20;;;;;;4975937;28;20213;-67
2022/03/27 04:43:33;;;;;;;56.50;19.30;;;7.60;28.80;;;;;;4975752;28;20178;-68
2022/03/27 04:45:59;;;;;;;40.63;17.67;;;8.10;29.20;;;;;;4976383;28;20186;-68
2022/03/27 04:48:25;;;;;;;45.60;17.88;;;7.90;27.70;;;;;;4989527;28;20197;-67
2022/03/27 04:50:52;;;;;;;52.80;18.20;;;7.60;28.60;;;;;;4989969;28;20222;-68
2022/03/27 04:53:19;;;;;;;44.05;19.15;;;7.60;28.60;;;;;;4979789;28;20957;-71
2022/03/27 04:55:44;;;;;;;47.60;19.47;;;7.60;28.70;;;;;;4992410;28;20265;-67
2022/03/27 04:58:10;;;;;;;49.53;19.37;;;7.40;28.60;;;;;;4994270;28;20457;-68
2022/03/27 05:00:37;;;;;;;53.37;20.50;;;7.20;29.10;;;;;;4992356;28;20203;-66
2022/03/27 05:03:03;;;;;;;44.40;20.45;;;7.90;28.60;;;;;;4976149;28;20221;-66
2022/03/27 05:05:29;;;;;;;51.67;21.27;;;7.30;28.80;;;;;;4987311;28;20656;-67
2022/03/27 05:07:54;;;;;;;44.23;21.53;;;7.20;29.00;;;;;;4989697;28;20524;-67
2022/03/27 05:10:20;;;;;;;53.57;21.63;;;7.30;29.30;;;;;;4993068;28;20202;-67
2022/03/27 05:12:46;;;;;;;52.23;21.23;;;7.40;28.00;;;;;;4983503;28;20206;-68
2022/03/27 05:15:12;;;;;;;50.40;23.07;;;7.40;28.10;;;;;;4977772;28;20181;-70
2022/03/27 05:17:53;;;;;;;56.88;21.80;;;7.30;28.60;;;;;;4980771;28;20193;-68
2022/03/27 05:20:19;;;;;;;51.55;22.50;;;7.20;28.00;;;;;;4983901;28;20221;-68
2022/03/27 05:22:45;;;;;;;54.73;22.50;;;7.00;28.60;;;;;;4985410;28;20254;-68
2022/03/27 05:25:12;;;;;;;49.20;23.33;;;7.10;28.80;;;;;;4983224;28;20178;-68
2022/03/27 05:27:50;;;;;;;60.17;25.45;;;7.30;29.70;;;;;;4981360;28;20202;-68
2022/03/27 05:30:21;;;;;;;56.58;23.05;;;7.10;29.30;;;;;;4978118;28;20209;-70
2022/03/27 05:32:47;;;;;;;50.63;22.95;;;7.00;28.30;;;;;;4981224;28;20190;-68
2022/03/27 05:35:14;;;;;;;49.10;22.80;;;6.90;29.00;;;;;;4983887;28;20179;-70
2022/03/27 05:37:44;;;;;;;69.35;24.70;;;6.90;29.90;;;;;;4975202;28;20174;-68
2022/03/27 05:40:13;;;;;;;58.30;23.55;;;7.00;30.10;;;;;;4990277;28;20593;-70
2022/03/27 05:42:39;;;;;;;54.92;24.20;;;7.30;28.40;;;;;;4976850;28;20186;-69
2022/03/27 05:45:06;;;;;;;58.03;22.23;;;7.10;29.40;;;;;;4973385;28;20186;-70
2022/03/27 05:47:32;;;;;;;50.05;24.30;;;7.00;29.60;;;;;;4974196;28;20426;-68
2022/03/27 05:49:58;;;;;;;51.85;23.60;;;7.20;28.70;;;;;;4985737;28;20304;-68
2022/03/27 05:52:24;;;;;;;49.47;23.57;;;7.20;28.60;;;;;;4992165;28;20842;-67
2022/03/27 05:54:51;;;;;;;53.33;24.37;;;7.40;28.40;;;;;;4990376;28;20417;-67
2022/03/27 05:57:18;;;;;;;54.25;23.83;;;6.90;28.70;;;;;;4977608;28;20426;-68
2022/03/27 05:59:45;;;;;;;57.25;23.77;;;7.00;29.10;;;;;;4986877;28;20186;-69
2022/03/27 06:02:12;;;;;;;65.75;24.83;;;7.00;29.10;;;;;;4979345;28;20213;-74
2022/03/27 06:04:38;;;;;;;63.33;24.75;;;7.50;28.50;;;;;;4976267;28;20178;-75
2022/03/27 06:07:04;;;;;;;58.95;24.90;;;7.20;28.40;;;;;;4992355;28;20182;-76
2022/03/27 06:09:30;;;;;;;54.25;23.90;;;7.30;28.10;;;;;;4991400;28;20204;-76
2022/03/27 06:11:55;;;;;;;55.53;23.80;;;7.40;29.20;;;;;;4990344;28;20284;-75
2022/03/27 06:14:21;;;;;;;82.10;25.40;;;7.80;28.00;;;;;;4973309;28;20205;-77
2022/03/27 06:16:47;;;;;;;58.97;25.13;;;7.70;28.30;;;;;;4978464;28;20603;-73
2022/03/27 06:19:12;;;;;;;62.23;25.50;;;7.90;27.90;;;;;;4974170;28;20650;-72
2022/03/27 06:21:38;;;;;;;81.13;27.53;;;8.10;27.30;;;;;;4979364;28;20300;-69
2022/03/27 06:24:04;;;;;;;58.57;24.23;;;8.00;27.50;;;;;;4981194;28;20425;-69
2022/03/27 06:26:30;;;;;;;59.97;26.33;;;7.90;27.90;;;;;;4990765;28;20409;-69
2022/03/27 06:28:56;;;;;;;58.73;27.00;;;7.90;28.00;;;;;;4979468;28;20208;-69
2022/03/27 06:31:22;;;;;;;64.13;29.83;;;8.00;28.10;;;;;;4991878;28;20202;-72
2022/03/27 06:33:47;;;;;;;65.50;30.40;;;7.80;27.90;;;;;;4978780;28;20174;-69
2022/03/27 06:36:13;;;;;;;67.40;29.70;;;7.60;28.20;;;;;;4991571;28;20174;-69
2022/03/27 06:38:39;;;;;;;59.23;28.70;;;7.70;28.30;;;;;;4973920;28;20214;-70
2022/03/27 06:41:06;;;;;;;66.23;28.10;;;7.90;28.00;;;;;;4972584;28;20190;-69
2022/03/27 06:43:32;;;;;;;68.90;26.75;;;7.90;27.30;;;;;;4972372;28;20411;-71
2022/03/27 06:45:58;;;;;;;70.07;27.23;;;7.60;27.60;;;;;;4982328;28;20193;-74
2022/03/27 06:48:24;;;;;;;55.10;26.40;;;7.90;27.30;;;;;;4990079;28;20946;-70
2022/03/27 06:50:50;;;;;;;63.27;27.13;;;8.00;27.20;;;;;;4989834;28;20209;-69
2022/03/27 06:53:20;;;;;;;59.92;25.65;;;8.00;27.40;;;;;;4992068;28;20452;-72
2022/03/27 06:55:46;;;;;;;50.53;24.90;;;8.40;26.80;;;;;;4991999;28;20258;-72
2022/03/27 06:58:12;;;;;;;53.95;26.00;;;8.60;26.70;;;;;;4986633;28;20186;-71
2022/03/27 07:03:22;;;;;;;68.68;33.22;;;8.80;26.60;;;;;;4991762;28;20443;-70
2022/03/27 07:05:48;;;;;;;67.73;28.70;;;8.60;27.20;;;;;;4990234;28;20798;-69
2022/03/27 07:08:16;;;;;;;65.82;29.48;;;8.60;27.30;;;;;;4972372;28;20707;-70
2022/03/27 07:10:44;;;;;;;82.00;38.25;;;8.50;27.40;;;;;;4982304;28;20215;-70
2022/03/27 07:13:11;;;;;;;73.00;38.00;;;8.30;27.70;;;;;;4977084;28;20641;-70
2022/03/27 07:15:38;;;;;;;70.38;31.90;;;8.60;27.50;;;;;;4991950;28;20197;-69
2022/03/27 07:18:05;;;;;;;75.03;33.38;;;9.00;27.20;;;;;;4990794;28;20192;-70
2022/03/27 07:20:33;;;;;;;60.50;29.33;;;9.20;26.40;;;;;;4988230;28;20202;-72
2022/03/27 07:23:01;;;;;;;69.35;31.23;;;9.10;26.50;;;;;;4991794;28;20562;-70
2022/03/27 07:25:29;;;;;;;60.47;25.13;;;9.10;26.40;;;;;;4987964;28;20181;-72
2022/03/27 07:27:55;;;;;;;53.00;25.05;;;9.40;26.20;;;;;;4989814;28;20547;-70
2022/03/27 07:30:21;;;;;;;55.88;23.77;;;8.80;27.00;;;;;;4990257;28;20281;-71
2022/03/27 07:32:48;;;;;;;57.03;23.75;;;8.50;27.40;;;;;;4991285;28;20205;-72
2022/03/27 07:35:14;;;;;;;51.05;23.50;;;8.70;26.80;;;;;;4991673;28;20174;-74
2022/03/27 07:37:42;;;;;;;48.47;22.98;;;8.60;27.20;;;;;;4989326;28;20301;-71
2022/03/27 07:40:09;;;;;;;55.03;23.45;;;8.30;27.60;;;;;;4991633;28;20170;-71
2022/03/27 07:42:39;;;;;;;56.70;24.25;;;8.50;27.70;;;;;;4989504;28;20666;-72
2022/03/27 07:45:06;;;;;;;69.82;23.73;;;8.90;27.30;;;;;;4987758;28;20197;-73
2022/03/27 07:47:33;;;;;;;52.73;23.67;;;9.10;26.40;;;;;;4971647;28;20314;-72
2022/03/27 07:49:59;;;;;;;53.35;22.70;;;9.30;26.60;;;;;;4975104;28;20457;-72
2022/03/27 07:52:26;;;;;;;58.83;23.67;;;9.20;26.20;;;;;;4975786;28;20202;-72
2022/03/27 07:54:52;;;;;;;53.10;22.47;;;9.10;26.80;;;;;;4990546;28;20758;-71
2022/03/27 07:57:18;;;;;;;54.93;22.97;;;9.20;26.80;;;;;;4986652;28;20428;-73
2022/03/27 07:59:44;;;;;;;55.17;22.50;;;9.10;26.80;;;;;;4978578;28;20645;-73
2022/03/27 08:02:09;;;;;;;59.13;23.97;;;9.60;25.70;;;;;;4978056;28;20205;-72
2022/03/27 08:04:35;;;;;;;62.50;24.63;;;9.60;25.50;;;;;;4976137;28;20425;-73
2022/03/27 08:07:01;;;;;;;52.50;24.00;;;9.50;26.00;;;;;;4974287;28;20174;-73
2022/03/27 08:09:27;;;;;;;54.63;22.93;;;9.60;26.00;;;;;;4974734;28;20170;-74
2022/03/27 08:11:55;;;;;;;59.13;26.30;;;9.80;25.70;;;;;;4983399;28;20556;-73
2022/03/27 08:14:21;;;;;;;83.40;26.57;;;10.20;24.30;;;;;;4974839;28;20540;-73
2022/03/27 08:16:47;;;;;;;58.63;23.73;;;10.30;24.30;;;;;;4974557;28;20904;-73
2022/03/27 08:19:12;;;;;;;58.77;23.83;;;10.40;23.90;;;;;;4974889;28;20421;-74
2022/03/27 08:21:39;;;;;;;63.17;23.90;;;10.50;23.60;;;;;;4986055;28;20514;-73
2022/03/27 08:24:05;;;;;;;51.67;23.20;;;10.60;23.80;;;;;;4994002;28;20177;-73
2022/03/27 08:29:15;;;;;;;52.87;23.93;;;9.90;25.20;;;;;;4994327;28;20409;-73
2022/03/27 08:31:41;;;;;;;74.87;25.40;;;10.20;24.40;;;;;;4993085;28;20461;-73
2022/03/27 08:34:07;;;;;;;50.87;25.17;;;10.90;23.40;;;;;;4993735;28;20569;-73
2022/03/27 08:36:33;;;;;;;56.10;22.97;;;10.70;23.70;;;;;;4993601;28;20166;-73
2022/03/27 08:38:59;;;;;;;59.77;24.57;;;10.70;23.60;;;;;;4992569;28;20413;-74
2022/03/27 08:41:26;;;;;;;58.47;23.53;;;11.60;22.80;;;;;;4993700;28;20954;-75
2022/03/27 08:43:58;;;;;;;55.87;25.70;;;12.00;21.90;;;;;;4975403;28;20205;-73
2022/03/27 08:46:29;;;;;;;48.17;23.03;;;12.50;21.60;;;;;;4974031;28;20763;-73
2022/03/27 08:49:01;;;;;;;54.30;23.57;;;12.20;21.80;;;;;;4974501;28;20440;-73
2022/03/27 08:51:39;;;;;;;50.03;22.37;;;12.40;21.40;;;;;;4974037;28;20490;-73
2022/03/27 08:54:07;;;;;;;55.93;24.00;;;11.80;21.80;;;;;;4988346;28;20444;-73
2022/03/27 08:56:35;;;;;;;53.63;23.77;;;12.50;22.10;;;;;;4993108;28;20930;-73
2022/03/27 08:59:10;;;;;;;46.10;23.60;;;13.20;20.80;;;;;;4991886;28;20416;-73
2022/03/27 09:01:35;;;;;;;59.67;24.80;;;13.30;21.00;;;;;;4991549;28;20433;-73
2022/03/27 09:04:02;;;;;;;56.20;23.47;;;13.30;21.10;;;;;;4990709;28;20433;-74
2022/03/27 09:06:28;;;;;;;54.30;25.03;;;13.00;21.00;;;;;;4989999;28;20431;-73
2022/03/27 09:08:53;;;;;;;48.40;24.23;;;15.10;23.10;;;;;;4991356;28;20424;-73
2022/03/27 09:11:21;;;;;;;63.53;25.93;;;13.30;21.20;;;;;;4991119;28;20472;-73
2022/03/27 09:13:49;;;;;;;55.40;25.33;;;13.30;21.20;;;;;;4990564;28;20174;-74
2022/03/27 09:16:16;;;;;;;57.37;26.23;;;12.70;22.10;;;;;;4992926;28;20413;-73
2022/03/27 09:18:48;;;;;;;55.90;24.67;;;12.80;22.70;;;;;;4993200;28;20452;-73
2022/03/27 09:21:15;;;;;;;53.17;24.53;;;13.10;22.20;;;;;;4992963;28;20487;-74
2022/03/27 09:23:40;;;;;;;55.37;24.40;;;13.40;22.00;;;;;;4990085;28;20484;-75
2022/03/27 09:26:09;;;;;;;48.97;22.50;;;14.40;21.30;;;;;;4992403;28;20800;-74
2022/03/27 09:28:40;;;;;;;47.57;23.70;;;14.50;21.20;;;;;;4993032;28;20173;-73
2022/03/27 09:31:18;;;;;;;49.63;23.00;;;14.30;21.30;;;;;;4992680;28;20473;-74
2022/03/27 09:33:47;;;;;;;47.40;23.67;;;14.60;21.00;;;;;;4991292;28;20432;-74
2022/03/27 09:36:14;;;;;;;58.23;24.10;;;15.40;20.30;;;;;;4992469;28;20414;-74
2022/03/27 09:38:40;;;;;;;52.67;23.00;;;16.10;19.60;;;;;;4992702;28;20464;-73
2022/03/27 09:41:27;;;;;;;48.93;23.90;;;15.70;19.50;;;;;;4992432;28;20472;-74
2022/03/27 09:44:01;;;;;;;43.97;22.63;;;15.90;19.70;;;;;;4990507;28;20828;-73
2022/03/27 09:46:27;;;;;;;52.93;24.00;;;15.00;21.40;;;;;;4992349;28;20422;-73
2022/03/27 09:48:56;;;;;;;55.40;23.80;;;15.60;20.70;;;;;;4992683;28;20993;-73
2022/03/27 09:51:22;;;;;;;53.07;23.57;;;15.60;20.10;;;;;;4992496;28;20484;-73
2022/03/27 09:53:57;;;;;;;50.10;22.27;;;15.40;21.10;;;;;;4990900;28;20939;-74
2022/03/27 09:56:28;;;;;;;60.83;21.07;;;15.90;20.40;;;;;;4992165;28;20173;-74
2022/03/27 09:58:54;;;;;;;42.27;19.70;;;15.50;20.10;;;;;;4992581;28;20433;-74
2022/03/27 10:01:25;;;;;;;41.23;20.57;;;15.40;21.00;;;;;;4992658;28;20576;-74
2022/03/27 10:04:13;;;;;;;38.40;19.70;;;15.60;20.00;;;;;;4992235;28;20216;-73
2022/03/27 10:06:41;;;;;;;53.83;20.90;;;15.90;19.70;;;;;;4978885;28;20429;-73
2022/03/27 10:09:08;;;;;;;48.83;20.70;;;15.80;20.50;;;;;;4992329;28;20430;-73
2022/03/27 10:11:35;;;;;;;56.47;20.60;;;16.30;20.20;;;;;;4990760;28;20466;-74
2022/03/27 10:14:03;;;;;;;46.07;20.10;;;16.50;19.80;;;;;;4992121;28;20445;-73
2022/03/27 10:16:34;;;;;;;58.47;20.03;;;16.50;19.00;;;;;;4990983;28;20433;-74
2022/03/27 10:19:12;;;;;;;41.17;20.73;;;17.40;19.00;;;;;;4992239;28;20485;-74
2022/03/27 10:21:41;;;;;;;42.33;19.30;;;18.40;18.10;;;;;;4992094;28;20961;-74
2022/03/27 10:24:15;;;;;;;49.47;20.20;;;18.40;16.70;;;;;;4992231;28;20426;-74
2022/03/27 10:26:43;;;;;;;45.50;19.90;;;18.30;17.00;;;;;;4990913;28;20546;-74
2022/03/27 10:29:10;;;;;;;50.67;20.90;;;18.60;17.00;;;;;;4991737;28;20507;-74
2022/03/27 10:31:38;;;;;;;47.77;19.70;;;18.70;17.50;;;;;;4991799;28;20495;-75
2022/03/27 10:34:05;;;;;;;42.00;18.60;;;18.60;17.40;;;;;;4991937;28;20443;-75
2022/03/27 10:36:50;;;;;;;45.63;18.70;;;19.30;15.10;;;;;;4987492;28;20434;-74
2022/03/27 10:39:28;;;;;;;39.13;20.03;;;19.80;15.40;;;;;;4971081;28;20447;-74
2022/03/27 10:41:59;;;;;;;48.33;19.47;;;19.80;15.00;;;;;;4972861;28;20801;-74
2022/03/27 10:44:43;;;;;;;43.83;20.30;;;20.00;17.70;;;;;;4972292;28;20787;-74
2022/03/27 10:47:23;;;;;;;40.27;19.07;;;19.90;14.20;;;;;;4975613;28;20458;-74
2022/03/27 10:50:01;;;;;;;43.87;20.83;;;19.20;15.20;;;;;;4991933;28;20444;-74
2022/03/27 10:52:36;;;;;;;46.30;19.80;;;19.80;14.90;;;;;;4991349;28;20970;-74
2022/03/27 10:55:13;;;;;;;39.03;19.23;;;20.80;15.40;;;;;;4992224;28;20494;-74
2022/03/27 10:57:41;;;;;;;46.10;20.60;;;19.90;14.00;;;;;;4990820;28;20424;-74
2022/03/27 11:00:09;;;;;;;39.03;20.00;;;20.40;13.60;;;;;;4991978;28;20427;-74
2022/03/27 11:03:01;;;;;;;41.03;20.50;;;20.40;13.50;;;;;;4991861;28;20420;-74
2022/03/27 11:05:32;;;;;;;40.23;19.13;;;21.80;12.70;;;;;;4990416;28;20464;-73
2022/03/27 11:08:19;;;;;;;39.63;19.60;;;21.90;12.30;;;;;;4990895;28;20527;-74
2022/03/27 11:10:59;;;;;;;37.47;17.87;;;23.80;10.90;;;;;;4972311;28;20866;-74
2022/03/27 11:13:30;;;;;;;35.87;19.20;;;25.20;10.80;;;;;;4972096;28;20444;-74
2022/03/27 11:16:15;;;;;;;34.97;18.57;;;25.50;9.00;;;;;;4972362;28;20421;-75
2022/03/27 11:18:50;;;;;;;43.53;19.07;;;25.00;9.80;;;;;;4972082;28;20500;-76
2022/03/27 11:21:45;;;;;;;36.20;18.30;;;25.70;9.20;;;;;;4987819;28;20486;-75
2022/03/27 11:24:10;;;;;;;33.30;18.23;;;26.60;8.90;;;;;;4989378;28;20429;-73
2022/03/27 11:26:37;;;;;;;42.70;18.53;;;28.10;7.90;;;;;;4991323;28;20923;-76
2022/03/27 11:29:22;;;;;;;34.93;17.30;;;28.10;6.40;;;;;;4992452;28;20708;-74
2022/03/27 11:32:08;;;;;;;37.87;18.03;;;28.60;7.50;;;;;;4994498;28;20472;-74
2022/03/27 11:34:35;;;;;;;33.70;17.83;;;29.20;7.10;;;;;;4995125;28;20435;-74
2022/03/27 11:37:14;;;;;;;31.63;17.00;;;28.70;5.70;;;;;;4994789;28;20404;-74
2022/03/27 11:39:40;;;;;;;40.03;17.57;;;27.80;6.90;;;;;;4994895;28;20499;-74
2022/03/27 11:42:29;;;;;;;38.37;18.03;;;27.50;7.30;;;;;;4992760;28;20449;-74
2022/03/27 11:45:16;;;;;;;32.87;17.20;;;26.10;9.30;;;;;;4994924;28;20409;-74
2022/03/27 11:47:54;;;;;;;32.73;17.27;;;25.50;9.00;;;;;;5002343;28;20405;-74
2022/03/27 11:50:34;;;;;;;36.83;16.80;;;25.80;9.10;;;;;;5002640;28;20439;-74
2022/03/27 11:53:01;;;;;;;36.53;16.97;;;26.30;7.80;;;;;;5008609;28;20464;-75
2022/03/27 11:55:28;;;;;;;25.90;15.50;;;27.30;7.40;;;;;;5004200;28;20421;-75
2022/03/27 11:57:56;;;;;;;50.20;16.67;;;28.80;6.40;;;;;;4994946;28;20459;-74
2022/03/27 12:00:48;;;;;;;33.23;16.30;;;28.90;5.90;;;;;;4994933;28;20512;-74
2022/03/27 12:03:19;;;;;;;26.23;15.13;;;28.90;4.80;;;;;;4992525;28;20440;-75
2022/03/27 12:05:45;;;;;;;33.00;14.87;;;29.60;5.00;;;;;;4994777;28;20419;-74
2022/03/27 12:08:15;;;;;;;30.63;14.73;;;30.30;4.20;;;;;;4994461;28;20411;-74
2022/03/27 12:10:42;;;;;;;33.17;15.50;;;31.40;2.90;;;;;;4994439;28;20468;-74
2022/03/27 12:13:09;;;;;;;31.47;14.07;;;31.20;3.40;;;;;;4993663;28;20437;-75
2022/03/27 12:15:51;;;;;;;30.80;14.50;;;31.20;3.50;;;;;;4994347;28;20436;-74
2022/03/27 12:18:27;;;;;;;35.93;14.20;;;31.40;3.10;;;;;;4994234;28;20448;-75
2022/03/27 12:20:53;;;;;;;25.37;13.90;;;31.40;4.60;;;;;;4994114;28;20534;-74
2022/03/27 12:23:30;;;;;;;29.50;14.10;;;31.70;3.50;;;;;;4993337;28;20792;-75
2022/03/27 12:29:40;;;;;;;21.43;13.10;;;32.80;1.10;;;;;;4993988;28;20423;-75
2022/03/27 12:32:21;;;;;;;26.70;14.73;;;33.00;1.10;;;;;;4993952;28;20522;-74
2022/03/27 12:34:50;;;;;;;29.37;14.13;;;32.90;1.00;;;;;;4992568;28;20425;-74
2022/03/27 12:37:18;;;;;;;27.10;12.60;;;33.20;1.00;;;;;;4993566;28;20404;-74
2022/03/27 12:39:49;;;;;;;25.50;13.50;;;32.50;1.00;;;;;;4993608;28;20424;-76
2022/03/27 12:42:32;;;;;;;24.13;13.13;;;31.40;1.00;;;;;;4993776;28;20942;-74
2022/03/27 12:45:07;;;;;;;21.73;13.03;;;31.00;1.30;;;;;;4991790;28;20495;-74
2022/03/27 12:47:36;;;;;;;23.63;12.37;;;30.40;2.10;;;;;;4993754;28;20415;-74
2022/03/27 12:50:04;;;;;;;27.87;13.33;;;29.90;1.70;;;;;;4993572;28;20793;-74
2022/03/27 12:52:30;;;;;;;28.33;12.90;;;28.50;1.90;;;;;;4993538;28;20449;-74